Terminal Aerodrome Forecast
Issued by NWS

Home | Current Version | Previous Version | Text Only | Print | Product List | Glossary Off
Versions: 1 2 3 4 5 6 7 8 9 10 11 12 13 14 15 16 17 18 19 20 21 22 23 24 25 26 27

000
FTUS42 KMHX 261100
TAFPGV
TAF
KPGV 261131Z 2612/2712 24005KT P6SM BKN025
      TEMPO 2612/2613 3SM BR
     FM261700 18003KT P6SM SCT030
     FM262200 18003KT P6SM SCT040
      AMD LTD TO CLD VIS AND WIND=

USA.gov is the U.S. government's official web portal to all federal, state and local government web resources and services.